Home > Products > Valid Products > TAF

000
FTUS43 KIND 030700 AAA
TAFIND
TAF AMD
KIND 030715Z 0307/0412 11007KT P6SM OVC080
     FM030900 12007KT P6SM BKN050 OVC080
      TEMPO 0309/0311 5SM -FZRAPL
     FM031100 13007KT 4SM -FZRAPL BR SCT015 OVC040
     FM031300 15010KT 3SM -FZRA BR OVC008
     FM031600 18012G18KT 3SM RA BR OVC006
     FM032000 22014G23KT 3SM RA BR OVC007
     FM040300 27010KT 5SM -RA BR OVC008
     FM040600 31009KT 5SM -RASN BR OVC009
     FM040900 31010KT 5SM -SHSN OVC010=



000
FTUS43 KIND 030700 AAA
TAFLAF
TAF AMD
KLAF 030712Z 0307/0406 12007KT P6SM BKN050 OVC080
      TEMPO 0308/0310 3SM -FZRAPLSN
     FM031000 13008KT 4SM -FZRAPL BR SCT015 OVC040
     FM031200 14010KT 3SM -FZRA BR OVC012
     FM031600 18012KT 3SM -RA BR OVC008
     FM032000 22013G22KT 3SM RA BR OVC008
     FM040000 27010KT 5SM -RA BR OVC009
     FM040500 32008KT 5SM -RASN BR OVC020
      AMD LTD TO CLD VIS AND WIND TIL 031400=



000
FTUS43 KIND 030500
TAFIND
TAF
KIND 030522Z 0306/0412 11007KT P6SM OVC080
     FM031000 13007KT 4SM -FZRAPL BR SCT015 OVC040
     FM031200 15010KT 3SM -FZRA BR OVC008
     FM031600 18012G18KT 3SM RA BR OVC006
     FM032000 22014G23KT 3SM RA BR OVC007
     FM040300 27010KT 5SM -RA BR OVC008
     FM040600 31009KT 5SM -RASN BR OVC009
     FM040900 31010KT 5SM -SHSN OVC010=



000
FTUS43 KIND 030500
TAFLAF
TAF
KLAF 030522Z 0306/0406 12007KT P6SM OVC080
     FM031000 13008KT 4SM -FZRAPL BR SCT015 OVC040
     FM031200 14010KT 3SM -FZRA BR OVC012
     FM031600 18012KT 3SM -RA BR OVC008
     FM032000 22013G22KT 3SM RA BR OVC008
     FM040000 27010KT 5SM -RA BR OVC009
     FM040500 32008KT 5SM -RASN BR OVC020
      AMD LTD TO CLD VIS AND WIND TIL 031400=



000
FTUS43 KIND 030200 AAA
TAFIND
TAF AMD
KIND 030222Z 0302/0406 11007KT P6SM OVC080
     FM031000 13007KT 4SM -FZRAPL BR SCT015 OVC040
     FM031200 15010KT 3SM -FZRA BR OVC008
     FM031600 18012G18KT 3SM RA BR OVC006
     FM032000 22014G23KT 3SM RA BR OVC007
     FM040300 27014KT 5SM -RA OVC009=



000
FTUS43 KIND 022300
TAFIND
TAF
KIND 022320Z 0300/0406 11007KT P6SM OVC080
     FM031000 13007KT 4SM -FZRAPL BR SCT015 OVC040
     FM031200 15010KT 3SM -FZRA BR OVC008
     FM031600 18012G18KT 3SM RA BR OVC006
     FM032000 22014G23KT 3SM RA BR OVC007
     FM040300 27014KT 5SM -RA OVC009=



000
FTUS43 KIND 022300
TAFLAF
TAF
KLAF 022320Z 0300/0324 12007KT P6SM OVC080
     FM031000 13008KT 4SM -FZRAPL BR SCT015 OVC040
     FM031200 14010KT 3SM -FZRA BR OVC012
     FM031600 18012KT 3SM -RA BR OVC008
     FM032000 22014G24KT 3SM RA BR OVC008
      AMD LTD TO CLD VIS AND WIND 0302/0314=



000
FTUS43 KIND 022300
TAFIND
TAF
KIND 022320Z 0300/0406 11007KT P6SM OVC080
     FM031000 13007KT 4SM -FZRAPL BR SCT015 OVC040
     FM031200 15010KT 3SM -FZRA BR OVC008
     FM031600 18012G18KT 3SM RA BR OVC006
     FM032000 22014G23KT 3SM RA BR OVC007
     FM040300 27014KT 5SM -RA OVC009=



000
FTUS43 KIND 022300
TAFLAF
TAF
KLAF 022320Z 0300/0324 12007KT P6SM OVC080
     FM031000 13008KT 4SM -FZRAPL BR SCT015 OVC040
     FM031200 14010KT 3SM -FZRA BR OVC012
     FM031600 18012KT 3SM -RA BR OVC008
     FM032000 22014G24KT 3SM RA BR OVC008
      AMD LTD TO CLD VIS AND WIND 0302/0314=



000
FTUS43 KIND 022000 AAA
TAFIND
TAF AMD
KIND 022020Z 0220/0324 VRB04KT P6SM BKN250
     FM022300 10005KT P6SM SCT100 BKN200
     FM030300 10007KT P6SM OVC080
     FM031000 12007KT 4SM -FZRAPL BR SCT015 OVC040
     FM031200 14010KT 3SM -FZRA BR OVC012
     FM031600 18010KT 3SM -RA BR OVC008=



000
FTUS43 KIND 021700
TAFLAF
TAF
KLAF 021725Z 0218/0318 VRB04KT P6SM BKN250
     FM022300 11004KT P6SM SCT100 BKN200
     FM030300 10007KT P6SM OVC080
     FM031000 12007KT 4SM -FZRAPL BR SCT015 OVC040
     FM031200 14010KT 3SM -FZRA BR OVC012
     FM031700 18011KT 3SM -RA BR OVC008=



000
FTUS43 KIND 021700
TAFIND
TAF
KIND 021725Z 0218/0324 VRB04KT P6SM BKN250
     FM022300 10005KT P6SM SCT100 BKN200
     FM030300 10007KT P6SM OVC080
     FM031000 12007KT 4SM -FZRAPL BR SCT015 OVC040
     FM031200 14010KT 3SM -FZRA BR OVC012
     FM031600 18010KT 3SM -RA BR OVC008=



000
FTUS43 KIND 021700
TAFLAF
TAF
KLAF 021725Z 0218/0318 VRB04KT P6SM BKN250
     FM022300 11004KT P6SM SCT100 BKN200
     FM030300 10007KT P6SM OVC080
     FM031000 12007KT 4SM -FZRAPL BR SCT015 OVC040
     FM031200 14010KT 3SM -FZRA BR OVC012
     FM031700 18011KT 3SM -RA BR OVC008=



000
FTUS43 KIND 021700
TAFIND
TAF
KIND 021725Z 0218/0324 VRB04KT P6SM BKN250
     FM022300 10005KT P6SM SCT100 BKN200
     FM030300 10007KT P6SM OVC080
     FM031000 12007KT 4SM -FZRAPL BR SCT015 OVC040
     FM031200 14010KT 3SM -FZRA BR OVC012
     FM031600 18010KT 3SM -RA BR OVC008=



000
FTUS43 KIND 021400 AAA
TAFIND
TAF AMD
KIND 021430Z 0215/0318 35004KT P6SM BKN240
     FM021700 06004KT P6SM FEW025 SCT120 BKN200
     FM022300 10005KT P6SM OVC100
     FM030900 12008KT 4SM -FZRAPL BR SCT015 OVC050
     FM031200 14010KT 3SM -FZRA BR OVC015=



000
FTUS43 KIND 021100
TAFIND
TAF
KIND 021129Z 0212/0318 34008KT P6SM BKN200
     FM021700 VRB04KT P6SM FEW025 BKN150
     FM022300 10005KT P6SM OVC100
     FM030900 12008KT 4SM -FZRAPL BR SCT015 OVC050
     FM031200 14010KT 3SM -FZRA BR OVC015=



000
FTUS43 KIND 021100
TAFLAF
TAF
KLAF 021129Z 0212/0312 33005KT P6SM BKN200
     FM021600 VRB04KT P6SM FEW025 BKN150
     FM030000 11004KT P6SM OVC100
     FM031000 12007KT 5SM -FZRAPL BR SCT015 OVC050
      AMD LTD TO CLD VIS AND WIND TIL 021400=



000
FTUS43 KIND 020800 AAA
TAFIND
TAF AMD
KIND 020819Z 0208/0312 30009KT P6SM SCT020 BKN200
     FM021200 32006KT P6SM SCT025 BKN150
     FM021600 05005KT P6SM SCT025 BKN150
     FM022300 10005KT P6SM OVC100
     FM031000 12008KT 3SM -FZRAPL OVC020=



000
FTUS43 KIND 020500
TAFLAF
TAF
KLAF 020520Z 0206/0306 27007KT P6SM SCT020 OVC100
     FM020900 31007KT P6SM SCT025 BKN150
     FM021600 05005KT P6SM SCT025 BKN150
     FM022200 10004KT P6SM OVC100
      AMD LTD TO CLD VIS AND WIND TIL 021400=



000
FTUS43 KIND 020500
TAFIND
TAF
KIND 020520Z 0206/0312 30009KT P6SM BKN020 OVC080
     FM020800 30008KT P6SM SCT020 OVC100
     FM021200 32006KT P6SM SCT025 BKN150
     FM021600 05005KT P6SM SCT025 BKN150
     FM022300 10005KT P6SM OVC100
     FM031000 12008KT 3SM -FZRAPL OVC020=



000
FTUS43 KIND 020500
TAFIND
TAF
KIND 020520Z 0206/0312 30009KT P6SM BKN020 OVC080
     FM020800 30008KT P6SM SCT020 OVC100
     FM021200 32006KT P6SM SCT025 BKN150
     FM021600 05005KT P6SM SCT025 BKN150
     FM022300 10005KT P6SM OVC100
     FM031000 12008KT 3SM -FZRAPL OVC020=



000
FTUS43 KIND 020500
TAFLAF
TAF
KLAF 020520Z 0206/0306 27007KT P6SM SCT020 OVC100
     FM020900 31007KT P6SM SCT025 BKN150
     FM021600 05005KT P6SM SCT025 BKN150
     FM022200 10004KT P6SM OVC100
      AMD LTD TO CLD VIS AND WIND TIL 021400=



000
FTUS43 KIND 020300 AAB
TAFLAF
TAF AMD
KLAF 020355Z 0204/0224 27007KT P6SM SCT020
      TEMPO 0204/0208 BKN020 OVC150
     FM020900 31007KT P6SM SCT025 BKN150
     FM021600 05005KT P6SM SCT025 BKN150
     FM022100 10005KT P6SM OVC100
      AMD LTD TO CLD VIS AND WIND 0204/0214=



000
FTUS43 KIND 020300 AAB
TAFLAF
TAF AMD
KLAF 020355Z 0204/0224 27007KT P6SM SCT020
      TEMPO 0204/0208 BKN020 OVC150
     FM020900 31007KT P6SM SCT025 BKN150
     FM021600 05005KT P6SM SCT025 BKN150
     FM022100 10005KT P6SM OVC100
      AMD LTD TO CLD VIS AND WIND 0204/0214=



000
FTUS43 KIND 020300 AAB
TAFIND
TAF AMD
KIND 020353Z 0204/0306 30008KT P6SM SCT015
     FM020700 30008KT P6SM BKN020
     FM021200 32006KT P6SM SCT025 BKN150
     FM021600 05005KT P6SM SCT025 BKN150
     FM022300 09005KT P6SM OVC100=



000
FTUS43 KIND 020200 AAA
TAFIND
TAF AMD
KIND 020231Z 0203/0306 30008KT P6SM OVC020
     FM021200 32006KT P6SM SCT025 BKN150
     FM021600 05005KT P6SM SCT025 BKN150
     FM022300 09005KT P6SM OVC100=



000
FTUS43 KIND 020100 AAA
TAFLAF
TAF AMD
KLAF 020137Z 0202/0224 28007KT P6SM OVC080
     FM020400 29007KT P6SM BKN025
     FM020900 31007KT P6SM SCT025 BKN150
     FM021600 05005KT P6SM SCT025 BKN150
     FM022100 10005KT P6SM OVC100
      AMD LTD TO CLD VIS AND WIND 0202/0214=



000
FTUS43 KIND 012300
TAFIND
TAF
KIND 012325Z 0200/0306 30008KT P6SM OVC020
      TEMPO 0200/0203 -SHSN
     FM021200 32006KT P6SM SCT025 BKN150
     FM021600 05005KT P6SM SCT025 BKN150
     FM022300 09005KT P6SM OVC100=



000
FTUS43 KIND 012300
TAFLAF
TAF
KLAF 012325Z 0200/0224 29007KT P6SM OVC020
     FM020900 31007KT P6SM SCT025 BKN150
     FM021600 05005KT P6SM SCT025 BKN150
     FM022100 10005KT P6SM OVC100
      AMD LTD TO CLD VIS AND WIND 0202/0214=



000
FTUS43 KIND 012300
TAFLAF
TAF
KLAF 012325Z 0200/0224 29007KT P6SM OVC020
     FM020900 31007KT P6SM SCT025 BKN150
     FM021600 05005KT P6SM SCT025 BKN150
     FM022100 10005KT P6SM OVC100
      AMD LTD TO CLD VIS AND WIND 0202/0214=



000
FTUS43 KIND 012300
TAFIND
TAF
KIND 012325Z 0200/0306 30008KT P6SM OVC020
      TEMPO 0200/0203 -SHSN
     FM021200 32006KT P6SM SCT025 BKN150
     FM021600 05005KT P6SM SCT025 BKN150
     FM022300 09005KT P6SM OVC100=



000
FTUS43 KIND 012200 AAB
TAFIND
TAF AMD
KIND 012232Z 0123/0224 29007KT P6SM -SHSN OVC015
     FM020000 29008KT 5SM BR BKN020
     FM020800 31009KT P6SM SCT025 SCT250
     FM021700 05005KT P6SM FEW025 BKN150=



000
FTUS43 KIND 011900 AAA
TAFIND
TAF AMD
KIND 011957Z 0120/0224 32004KT 2SM -DZSN BR OVC009
     FM012100 29007KT 3SM BR VCSH OVC015
     FM020000 29008KT 5SM BR BKN020
     FM020800 31009KT P6SM SCT025 SCT250
     FM021700 05005KT P6SM FEW025 BKN150=



000
FTUS43 KIND 011900 AAA
TAFIND
TAF AMD
KIND 011957Z 0120/0224 32004KT 2SM -DZSN BR OVC009
     FM012100 29007KT 3SM BR VCSH OVC015
     FM020000 29008KT 5SM BR BKN020
     FM020800 31009KT P6SM SCT025 SCT250
     FM021700 05005KT P6SM FEW025 BKN150=



000
FTUS43 KIND 011900 AAA
TAFLAF
TAF AMD
KLAF 011915Z 0119/0218 28005KT 3SM -SN BR BKN015 OVC025
     FM012300 29008KT 5SM BR BKN025
     FM020500 30007KT P6SM SCT025 SCT250
     FM021400 36004KT P6SM FEW025 SCT250
     FM021700 10004KT P6SM FEW025 BKN250=



000
FTUS43 KIND 011700
TAFLAF
TAF
KLAF 011734Z 0118/0218 28005KT 1SM -SN BR OVC012
     FM012000 28007KT 2SM BR VCSH OVC015
     FM012300 29008KT 5SM BR BKN029
     FM020500 30007KT P6SM SCT025 SCT250
     FM021400 36004KT P6SM FEW025 SCT250
     FM021700 10004KT P6SM FEW025 BKN250=



000
FTUS43 KIND 011700
TAFIND
TAF
KIND 011734Z 0118/0224 28004KT 2SM -DZSN BR BKN008 OVC015
     FM012100 29007KT 3SM BR VCSH OVC015
     FM020000 29008KT 5SM BR BKN020
     FM020800 31009KT P6SM SCT025 SCT250
     FM021700 05005KT P6SM FEW025 BKN150=



000
FTUS43 KIND 011700
TAFLAF
TAF
KLAF 011734Z 0118/0218 28005KT 1SM -SN BR OVC012
     FM012000 28007KT 2SM BR VCSH OVC015
     FM012300 29008KT 5SM BR BKN029
     FM020500 30007KT P6SM SCT025 SCT250
     FM021400 36004KT P6SM FEW025 SCT250
     FM021700 10004KT P6SM FEW025 BKN250=



000
FTUS43 KIND 011700
TAFIND
TAF
KIND 011734Z 0118/0224 28004KT 2SM -DZSN BR BKN008 OVC015
     FM012100 29007KT 3SM BR VCSH OVC015
     FM020000 29008KT 5SM BR BKN020
     FM020800 31009KT P6SM SCT025 SCT250
     FM021700 05005KT P6SM FEW025 BKN150=



000
FTUS43 KIND 011400 AAB
TAFIND
TAF AMD
KIND 011427Z 0114/0218 VRB03KT 3/4SM -SN BR OVC012
      TEMPO 0114/0116 1/2SM SN FZFG OVC008
     FM011600 31004KT 2SM -SN BR OVC007
     FM011900 29007KT 2SM BR VCSH OVC015
     FM020000 29009KT 5SM BR BKN020
     FM020700 31006KT P6SM SCT025 SCT250=



000
FTUS43 KIND 011200 AAA
TAFLAF
TAF AMD
KLAF 011255Z 0113/0212 VRB03KT 1SM -SN OVC015
      TEMPO 0113/0116 1/2SM SN OVC009
     FM011600 VRB05KT 2SM -SN BR OVC009
     FM012000 28007KT 3SM BR VCSH OVC020
     FM012300 29009KT 5SM BR BKN025
     FM020500 30007KT P6SM SCT025 SCT250
      AMD LTD TO CLD VIS AND WIND TIL 011400=



000
FTUS43 KIND 011200 AAA
TAFLAF
TAF AMD
KLAF 011255Z 0113/0212 VRB03KT 1SM -SN OVC015
      TEMPO 0113/0116 1/2SM SN OVC009
     FM011600 VRB05KT 2SM -SN BR OVC009
     FM012000 28007KT 3SM BR VCSH OVC020
     FM012300 29009KT 5SM BR BKN025
     FM020500 30007KT P6SM SCT025 SCT250
      AMD LTD TO CLD VIS AND WIND TIL 011400=



000
FTUS43 KIND 011200 AAA
TAFIND
TAF AMD
KIND 011241Z 0113/0218 VRB03KT 1/4SM +SN VV008
     FM011400 VRB03KT 1SM -SN BR OVC012
      TEMPO 0114/0116 1/2SM SN FZFG OVC008
     FM011600 31004KT 2SM -SN BR OVC007
     FM011900 29007KT 2SM BR VCSH OVC015
     FM020000 29009KT 5SM BR BKN020
     FM020700 31006KT P6SM SCT025 SCT250=



000
FTUS43 KIND 011200 AAA
TAFIND
TAF AMD
KIND 011241Z 0113/0218 VRB03KT 1/4SM +SN VV008
     FM011400 VRB03KT 1SM -SN BR OVC012
      TEMPO 0114/0116 1/2SM SN FZFG OVC008
     FM011600 31004KT 2SM -SN BR OVC007
     FM011900 29007KT 2SM BR VCSH OVC015
     FM020000 29009KT 5SM BR BKN020
     FM020700 31006KT P6SM SCT025 SCT250=



000
FTUS43 KIND 011100
TAFIND
TAF
KIND 011128Z 0112/0218 VRB03KT 1SM -SN BR OVC012
      TEMPO 0112/0116 1/2SM SN FZFG OVC008
     FM011600 31004KT 2SM -SN BR OVC007
     FM011900 29007KT 2SM BR VCSH OVC015
     FM020000 29009KT 5SM BR BKN020
     FM020700 31006KT P6SM SCT025 SCT250=



000
FTUS43 KIND 011100
TAFLAF
TAF
KLAF 011128Z 0112/0212 VRB03KT 1SM -SN OVC015
      TEMPO 0112/0115 3/4SM -SN OVC009
     FM011500 VRB05KT 2SM -SN BR OVC009
     FM012000 28007KT 3SM BR VCSH OVC020
     FM012300 29009KT 5SM BR BKN025
     FM020500 30007KT P6SM SCT025 SCT250
      AMD LTD TO CLD VIS AND WIND TIL 011400=



000
FTUS43 KIND 010900 AAA
TAFLAF
TAF AMD
KLAF 010900Z 0109/0206 VRB03KT 1SM -SN BR VV012
      TEMPO 0109/0112 3/4SM -SN VV004
     FM011200 VRB03KT 1SM -SN OVC004
     FM011500 29005KT 1SM -SHSN BR OVC009
     FM012000 29007KT 3SM BR OVC020
     FM020300 29008KT P6SM OVC025
      AMD LTD TO CLD VIS AND WIND TIL 011400=



000
FTUS43 KIND 010900 AAA
TAFLAF
TAF AMD
KLAF 010900Z 0109/0206 VRB03KT 1SM -SN BR VV012
      TEMPO 0109/0112 3/4SM -SN VV004
     FM011200 VRB03KT 1SM -SN OVC004
     FM011500 29005KT 1SM -SHSN BR OVC009
     FM012000 29007KT 3SM BR OVC020
     FM020300 29008KT P6SM OVC025
      AMD LTD TO CLD VIS AND WIND TIL 011400=



000
FTUS43 KIND 010800 AAA
TAFIND
TAF AMD
KIND 010830Z 0109/0212 12004KT 1SM -SN VV012
      TEMPO 0109/0112 VRB03KT 1/2SM SN FZFG VV008
     FM011200 VRB03KT 1SM -SN OVC002
     FM011500 29005KT 1SM -SN OVC004
     FM012100 29006KT P6SM OVC015
     FM020300 29008KT P6SM OVC025=



000
FTUS43 KIND 010800 AAA
TAFIND
TAF AMD
KIND 010830Z 0109/0212 12004KT 1SM -SN VV012
      TEMPO 0109/0112 VRB03KT 1/2SM SN FZFG VV008
     FM011200 VRB03KT 1SM -SN OVC002
     FM011500 29005KT 1SM -SN OVC004
     FM012100 29006KT P6SM OVC015
     FM020300 29008KT P6SM OVC025=



000
FTUS43 KIND 010500
TAFIND
TAF
KIND 010527Z 0106/0212 12007KT 1SM -SN VV012
      TEMPO 0106/0110 VRB03KT 1/2SM SN FZFG VV008
     FM011000 18003KT 1SM -SN OVC002
     FM011400 29005KT 1SM -SN OVC004
     FM012100 29006KT P6SM OVC015
     FM020300 29008KT P6SM OVC025=



000
FTUS43 KIND 010500
TAFLAF
TAF
KLAF 010527Z 0106/0206 12003KT 1SM -SN BR VV012
      TEMPO 0106/0110 3/4SM -SN VV004
     FM011000 VRB03KT 1SM -SN OVC004
     FM011400 29005KT 1SM -SHSN BR OVC009
     FM012000 29007KT 3SM BR OVC020
     FM020300 29008KT P6SM OVC025
      AMD LTD TO CLD VIS AND WIND TIL 011400=



000
FTUS43 KIND 010500
TAFLAF
TAF
KLAF 010527Z 0106/0206 12003KT 1SM -SN BR VV012
      TEMPO 0106/0110 3/4SM -SN VV004
     FM011000 VRB03KT 1SM -SN OVC004
     FM011400 29005KT 1SM -SHSN BR OVC009
     FM012000 29007KT 3SM BR OVC020
     FM020300 29008KT P6SM OVC025
      AMD LTD TO CLD VIS AND WIND TIL 011400=



000
FTUS43 KIND 010500
TAFIND
TAF
KIND 010527Z 0106/0212 12007KT 1SM -SN VV012
      TEMPO 0106/0110 VRB03KT 1/2SM SN FZFG VV008
     FM011000 18003KT 1SM -SN OVC002
     FM011400 29005KT 1SM -SN OVC004
     FM012100 29006KT P6SM OVC015
     FM020300 29008KT P6SM OVC025=



000
FTUS43 KIND 010300 AAB
TAFLAF
TAF AMD
KLAF 010350Z 0104/0124 12003KT 1SM -SN BR OVC002
      TEMPO 0105/0109 3/4SM -SN VV004
     FM011000 30006KT 1SM -SN OVC004
     FM012100 28007KT P6SM OVC020
      AMD LTD TO CLD VIS AND WIND TIL 011400=



000
FTUS43 KIND 010300 AAB
TAFLAF
TAF AMD
KLAF 010350Z 0104/0124 12003KT 1SM -SN BR OVC002
      TEMPO 0105/0109 3/4SM -SN VV004
     FM011000 30006KT 1SM -SN OVC004
     FM012100 28007KT P6SM OVC020
      AMD LTD TO CLD VIS AND WIND TIL 011400=



000
FTUS43 KIND 010300 AAD
TAFIND
TAF AMD
KIND 010346Z 0104/0206 11004KT 1/2SM SN FZFG VV009
     FM011000 VRB03KT 1SM -SN OVC002
     FM011400 30006KT 1SM -SN OVC004
     FM020100 29009KT P6SM OVC020=



000
FTUS43 KIND 010300 AAD
TAFIND
TAF AMD
KIND 010346Z 0104/0206 11004KT 1/2SM SN FZFG VV009
     FM011000 VRB03KT 1SM -SN OVC002
     FM011400 30006KT 1SM -SN OVC004
     FM020100 29009KT P6SM OVC020=



000
FTUS43 KIND 010200 AAA
TAFLAF
TAF AMD
KLAF 010231Z 0103/0124 12003KT 1SM -SN BR OVC005
      TEMPO 0104/0108 3/4SM -SN VV004
     FM011000 30006KT 1SM -SN OVC004
     FM012100 28007KT P6SM OVC020
      AMD LTD TO CLD VIS AND WIND TIL 011400=



000
FTUS43 KIND 010200 AAA
TAFLAF
TAF AMD
KLAF 010231Z 0103/0124 12003KT 1SM -SN BR OVC005
      TEMPO 0104/0108 3/4SM -SN VV004
     FM011000 30006KT 1SM -SN OVC004
     FM012100 28007KT P6SM OVC020
      AMD LTD TO CLD VIS AND WIND TIL 011400=



000
FTUS43 KIND 010200 AAC
TAFIND
TAF AMD
KIND 010228Z 0102/0206 VRB04KT 1SM -SN OVC002
      TEMPO 0103/0107 1/2SM SN FZFG VV004
     FM011400 30006KT 1SM -SN OVC004
     FM020100 29009KT P6SM OVC020=



000
FTUS43 KIND 010200 AAC
TAFIND
TAF AMD
KIND 010228Z 0102/0206 VRB04KT 1SM -SN OVC002
      TEMPO 0103/0107 1/2SM SN FZFG VV004
     FM011400 30006KT 1SM -SN OVC004
     FM020100 29009KT P6SM OVC020=



000
FTUS43 KIND 010100 AAB
TAFIND
TAF AMD
KIND 010143Z 0102/0206 09005KT 1SM -SN BR OVC007
      TEMPO 0102/0105 VRB03KT 3/4SM -SN VV004
     FM011400 30006KT 1SM -SN OVC004
     FM020100 29009KT P6SM OVC020=



000
FTUS43 KIND 010000 AAA
TAFIND
TAF AMD
KIND 010022Z 0100/0206 12007KT 2SM -SN BR OVC019
     FM010300 VRB04KT 1SM -SN BR OVC007
      TEMPO 0105/0109 3/4SM -SN VV004
     FM011400 30006KT 1SM -SN OVC004
     FM020100 29009KT P6SM OVC020=



000
FTUS43 KIND 282300
TAFIND
TAF
KIND 282337Z 0100/0206 10008KT P6SM OVC050
     FM010100 12006KT 2SM -SN BR OVC019
     FM010300 VRB04KT 1SM -SN BR OVC007
      TEMPO 0105/0109 3/4SM -SN VV004
     FM011400 30006KT 1SM -SN OVC004
     FM020100 29009KT P6SM OVC020=



000
FTUS43 KIND 282300
TAFLAF
TAF
KLAF 282337Z 0100/0124 11005KT 2SM -SN BR OVC015
     FM010400 VRB03KT 1SM -SN BR OVC005
      TEMPO 0104/0108 3/4SM -SN VV004
     FM011000 30006KT 1SM -SN OVC004
     FM012100 28007KT P6SM OVC020
      AMD LTD TO CLD VIS AND WIND 0102/0114=



000
FTUS43 KIND 282300
TAFLAF
TAF
KLAF 282337Z 0100/0124 11005KT 2SM -SN BR OVC015
     FM010400 VRB03KT 1SM -SN BR OVC005
      TEMPO 0104/0108 3/4SM -SN VV004
     FM011000 30006KT 1SM -SN OVC004
     FM012100 28007KT P6SM OVC020
      AMD LTD TO CLD VIS AND WIND 0102/0114=



000
FTUS43 KIND 282300
TAFIND
TAF
KIND 282337Z 0100/0206 10008KT P6SM OVC050
     FM010100 12006KT 2SM -SN BR OVC019
     FM010300 VRB04KT 1SM -SN BR OVC007
      TEMPO 0105/0109 3/4SM -SN VV004
     FM011400 30006KT 1SM -SN OVC004
     FM020100 29009KT P6SM OVC020=



000
FTUS43 KIND 282000 AAA
TAFIND
TAF AMD
KIND 282008Z 2820/0124 10009KT P6SM FEW070 BKN250
     FM282100 10008KT P6SM SCT025 OVC050
     FM010000 10006KT 2SM -SN BR OVC019
     FM010400 VRB04KT 1SM -SN BR OVC007
      TEMPO 0106/0110 3/4SM -SN VV004=



000
FTUS43 KIND 281700
TAFLAF
TAF
KLAF 281720Z 2818/0118 12007KT P6SM OVC080
     FM282100 11007KT P6SM SCT035 OVC050
     FM010000 11005KT 2SM -SN BR OVC015
     FM010400 VRB03KT 1SM -SN BR OVC005=



000
FTUS43 KIND 281700
TAFIND
TAF
KIND 281720Z 2818/0124 11008KT P6SM OVC080
     FM282100 10008KT P6SM SCT025 OVC050
     FM010000 10006KT 2SM -SN BR OVC019
     FM010400 VRB04KT 1SM -SN BR OVC007
      TEMPO 0106/0110 3/4SM -SN VV004=



000
FTUS43 KIND 281700
TAFIND
TAF
KIND 281720Z 2818/0124 11008KT P6SM OVC080
     FM282100 10008KT P6SM SCT025 OVC050
     FM010000 10006KT 2SM -SN BR OVC019
     FM010400 VRB04KT 1SM -SN BR OVC007
      TEMPO 0106/0110 3/4SM -SN VV004=



000
FTUS43 KIND 281700
TAFLAF
TAF
KLAF 281720Z 2818/0118 12007KT P6SM OVC080
     FM282100 11007KT P6SM SCT035 OVC050
     FM010000 11005KT 2SM -SN BR OVC015
     FM010400 VRB03KT 1SM -SN BR OVC005=



000
FTUS43 KIND 281400 AAA
TAFIND
TAF AMD
KIND 281417Z 2814/0118 10008KT P6SM OVC080
     FM282000 10008KT P6SM SCT025 OVC050
     FM282300 10006KT 2SM -SN BR OVC015
     FM010500 VRB04KT 1SM -SN BR OVC007=



000
FTUS43 KIND 281400 AAA
TAFIND
TAF AMD
KIND 281417Z 2814/0118 10008KT P6SM OVC080
     FM282000 10008KT P6SM SCT025 OVC050
     FM282300 10006KT 2SM -SN BR OVC015
     FM010500 VRB04KT 1SM -SN BR OVC007=



000
FTUS43 KIND 281100 RRA
TAFIND
TAF
KIND 281145Z 2812/0118 09007KT P6SM OVC100
     FM282000 10008KT P6SM SCT035 OVC060
     FM282300 10006KT 2SM -SN BR OVC015
     FM010500 VRB04KT 1SM -SN BR OVC007=



000
FTUS43 KIND 281100 RRA
TAFLAF
TAF
KLAF 281145Z 2812/0112 08003KT P6SM SCT120 BKN200
     FM281500 12006KT P6SM OVC100
     FM282100 10007KT P6SM SCT035 OVC070
     FM010000 11005KT 2SM -SN BR OVC015
     FM010400 VRB03KT 1SM -SN BR OVC006
      AMD LTD TO CLD VIS AND WIND TIL 281400=



000
FTUS43 KIND 281100 RRA
TAFIND
TAF
KIND 281145Z 2812/0118 09007KT P6SM OVC100
     FM282000 10008KT P6SM SCT035 OVC060
     FM282300 10006KT 2SM -SN BR OVC015
     FM010500 VRB04KT 1SM -SN BR OVC007=



000
FTUS43 KIND 281100 RRA
TAFLAF
TAF
KLAF 281145Z 2812/0112 08003KT P6SM SCT120 BKN200
     FM281500 12006KT P6SM OVC100
     FM282100 10007KT P6SM SCT035 OVC070
     FM010000 11005KT 2SM -SN BR OVC015
     FM010400 VRB03KT 1SM -SN BR OVC006
      AMD LTD TO CLD VIS AND WIND TIL 281400=



000
FTUS43 KIND 280800 AAA
TAFIND
TAF AMD
KIND 280824Z 2808/0112 06006KT P6SM SCT100 OVC200
     FM281000 10006KT P6SM OVC100
     FM281800 10008KT P6SM BKN040 OVC080
     FM010200 10006KT 5SM -SHSN OVC025
     FM010400 12005KT 2SM -SN OVC010=



    US Dept of Commerce
    National Oceanic and Atmospheric Administration
    National Weather Service
    1325 East West Highway
    Silver Spring, MD 20910
    Page Author: NWS Internet Services Team
Disclaimer
Information Quality
Credits
Glossary
Privacy Policy
Freedom of Information Act (FOIA)
About Us
Career Opportunities